createdAt,value
2018-06-19T00:01:24.268Z,21.66
2018-06-19T00:03:54.128Z,21.64
2018-06-19T00:06:23.838Z,21.59
2018-06-19T00:08:53.717Z,21.72
2018-06-19T00:11:23.484Z,21.63
2018-06-19T00:13:53.240Z,21.64
2018-06-19T00:16:22.832Z,21.53
2018-06-19T00:18:55.919Z,21.57
2018-06-19T00:21:34.241Z,21.55
2018-06-19T00:24:07.500Z,21.40
2018-06-19T00:26:37.169Z,21.39
2018-06-19T00:29:06.852Z,21.44
2018-06-19T00:34:39.380Z,21.60
2018-06-19T00:37:09.065Z,21.50
2018-06-19T00:39:38.720Z,21.35
2018-06-19T00:42:08.621Z,21.35
2018-06-19T00:44:38.271Z,21.43
2018-06-19T00:47:07.628Z,21.33
2018-06-19T00:52:12.567Z,21.38
2018-06-19T00:54:42.611Z,21.52
2018-06-19T00:57:12.578Z,21.70
2018-06-19T00:59:42.539Z,21.71
2018-06-19T01:02:12.585Z,21.98
2018-06-19T01:04:42.618Z,22.28
2018-06-19T01:07:12.556Z,22.14
2018-06-19T01:09:42.762Z,22.19
2018-06-19T01:12:12.596Z,22.31
2018-06-19T01:14:42.931Z,22.48
2018-06-19T01:17:12.766Z,22.28
2018-06-19T01:19:42.780Z,22.24
2018-06-19T01:22:12.659Z,22.04
2018-06-19T01:24:42.640Z,22.03
2018-06-19T01:27:12.725Z,21.89
2018-06-19T01:29:42.799Z,21.95
2018-06-19T01:32:12.909Z,21.97
2018-06-19T01:34:42.982Z,21.85
2018-06-19T01:37:12.966Z,22.02
2018-06-19T01:39:42.980Z,21.91
2018-06-19T01:42:13.044Z,21.85
2018-06-19T01:44:43.089Z,21.60
2018-06-19T01:47:13.129Z,21.42
2018-06-19T01:49:43.137Z,21.44
2018-06-19T01:52:13.327Z,21.28
2018-06-19T01:54:43.418Z,21.21
2018-06-19T01:57:13.249Z,21.46
2018-06-19T01:59:43.439Z,21.39
2018-06-19T02:02:13.494Z,21.43
2018-06-19T02:04:43.473Z,21.58
2018-06-19T02:07:13.640Z,21.47
2018-06-19T02:09:43.493Z,21.29
2018-06-19T02:12:13.618Z,21.25
2018-06-19T02:14:43.724Z,21.25
2018-06-19T02:17:13.679Z,21.21
2018-06-19T02:22:18.646Z,21.30
2018-06-19T02:24:48.871Z,21.28
2018-06-19T02:27:18.471Z,21.37
2018-06-19T02:29:48.392Z,21.28
2018-06-19T02:32:18.198Z,21.28
2018-06-19T02:34:51.605Z,21.42
2018-06-19T02:37:21.719Z,21.20
2018-06-19T02:39:55.241Z,21.11
2018-06-19T02:42:24.984Z,20.93
2018-06-19T02:44:54.657Z,21.13
2018-06-19T02:47:24.653Z,21.12
2018-06-19T02:49:54.436Z,21.10
2018-06-19T02:52:24.094Z,21.48
2018-06-19T02:54:54.316Z,21.34
2018-06-19T02:57:24.087Z,21.47
2018-06-19T02:59:53.724Z,21.39
2018-06-19T03:02:23.422Z,21.58
2018-06-19T03:04:53.177Z,21.53
2018-06-19T03:07:25.853Z,21.37
2018-06-19T03:09:55.553Z,21.17
2018-06-19T03:12:25.265Z,20.93
2018-06-19T03:14:54.909Z,21.13
2018-06-19T03:17:24.547Z,21.05
2018-06-19T03:19:54.222Z,21.01
2018-06-19T03:22:23.877Z,21.30
2018-06-19T03:24:54.338Z,21.17
2018-06-19T03:27:24.346Z,20.99
2018-06-19T03:29:55.543Z,20.96
2018-06-19T03:32:25.440Z,21.27
2018-06-19T03:34:55.688Z,21.54
2018-06-19T03:37:25.947Z,21.50
2018-06-19T03:39:55.300Z,21.43
2018-06-19T03:42:26.261Z,21.26
2018-06-19T03:44:59.817Z,21.31
2018-06-19T03:47:29.565Z,21.74
2018-06-19T03:49:59.269Z,21.75
2018-06-19T03:52:28.925Z,22.04
2018-06-19T03:54:59.686Z,22.61
2018-06-19T03:57:29.673Z,22.91
2018-06-19T04:00:00.479Z,23.10
2018-06-19T04:02:31.050Z,23.21
2018-06-19T04:05:01.289Z,23.66
2018-06-19T04:07:31.400Z,23.72
2018-06-19T04:10:01.125Z,23.66
2018-06-19T04:12:30.873Z,23.87
2018-06-19T04:15:02.263Z,23.95
2018-06-19T04:17:33.748Z,23.95
2018-06-19T04:20:04.439Z,24.04
2018-06-19T04:22:35.064Z,24.30
2018-06-19T04:25:05.766Z,24.50
2018-06-19T04:27:36.454Z,24.55
2018-06-19T04:30:06.331Z,24.57
2018-06-19T04:32:35.946Z,24.84
2018-06-19T04:35:06.002Z,25.19
2018-06-19T04:37:35.651Z,25.28
2018-06-19T04:40:05.627Z,25.47
2018-06-19T04:42:35.728Z,25.60
2018-06-19T04:45:06.116Z,25.95
2018-06-19T04:47:35.741Z,26.14
2018-06-19T04:50:05.441Z,25.90
2018-06-19T04:52:35.163Z,26.12
2018-06-19T04:55:05.232Z,26.13
2018-06-19T04:57:34.972Z,26.09
2018-06-19T05:00:04.867Z,26.29
2018-06-19T05:02:34.617Z,26.68
2018-06-19T05:05:04.543Z,26.72
2018-06-19T05:07:34.296Z,26.73
2018-06-19T05:10:04.057Z,26.97
2018-06-19T05:12:33.684Z,26.88
2018-06-19T05:15:03.377Z,27.14
2018-06-19T05:17:33.728Z,27.15
2018-06-19T05:20:03.471Z,27.19
2018-06-19T05:22:33.214Z,27.23
2018-06-19T05:25:02.958Z,27.46
2018-06-19T05:27:32.471Z,27.67
2018-06-19T05:30:02.156Z,27.43
2018-06-19T05:32:32.016Z,27.50
2018-06-19T05:35:01.780Z,27.76
2018-06-19T05:37:31.406Z,27.72
2018-06-19T05:40:01.150Z,28.02
2018-06-19T05:42:31.149Z,28.33
2018-06-19T05:50:11.783Z,27.84
2018-06-19T05:52:41.385Z,28.00
2018-06-19T05:55:11.364Z,28.07
2018-06-19T05:57:41.348Z,27.83
2018-06-19T06:00:11.960Z,27.99
2018-06-19T06:02:41.590Z,27.73
2018-06-19T06:05:11.227Z,28.17
2018-06-19T06:07:41.015Z,28.63
2018-06-19T06:10:10.720Z,29.21
2018-06-19T06:12:40.316Z,29.30
2018-06-19T06:15:10.064Z,29.32
2018-06-19T06:17:39.912Z,29.30
2018-06-19T06:20:09.554Z,29.32
2018-06-19T06:22:39.212Z,29.67
2018-06-19T06:25:08.874Z,29.39
2018-06-19T06:27:38.525Z,29.47
2018-06-19T06:30:08.240Z,29.70
2018-06-19T06:32:37.864Z,29.52
2018-06-19T06:35:07.687Z,29.67
2018-06-19T06:37:37.542Z,30.01
2018-06-19T06:40:07.280Z,30.06
2018-06-19T06:42:36.912Z,30.14
2018-06-19T06:45:06.529Z,29.87
2018-06-19T06:47:36.220Z,29.62
2018-06-19T06:50:05.990Z,29.45
2018-06-19T06:52:35.621Z,29.66
2018-06-19T06:55:05.013Z,29.66
2018-06-19T07:00:15.837Z,30.05
2018-06-19T07:02:45.516Z,30.27
2018-06-19T07:05:15.222Z,30.35
2018-06-19T07:07:45.101Z,29.88
2018-06-19T07:10:14.719Z,29.72
2018-06-19T07:12:46.222Z,29.76
2018-06-19T07:15:15.683Z,30.06
2018-06-19T07:17:45.289Z,29.95
2018-06-19T07:20:15.285Z,30.28
2018-06-19T07:22:44.985Z,30.26
2018-06-19T07:25:14.702Z,29.80
2018-06-19T07:30:19.115Z,30.15
2018-06-19T07:32:48.773Z,30.12
2018-06-19T07:35:18.442Z,30.25
2018-06-19T07:37:48.137Z,30.27
2018-06-19T07:40:17.764Z,30.33
2018-06-19T07:42:47.518Z,30.43
2018-06-19T07:45:17.103Z,30.52
2018-06-19T07:47:46.808Z,29.94
2018-06-19T07:50:16.464Z,30.05
2018-06-19T07:52:46.299Z,30.45
2018-06-19T07:55:15.683Z,30.20
2018-06-19T07:57:45.221Z,30.42
2018-06-19T08:00:15.028Z,29.96
2018-06-19T08:02:44.648Z,29.63
2018-06-19T08:05:14.222Z,29.97
2018-06-19T08:07:44.003Z,30.15
2018-06-19T08:10:14.069Z,29.86
2018-06-19T08:12:43.737Z,30.21
2018-06-19T08:15:13.461Z,30.82
2018-06-19T08:17:43.116Z,30.67
2018-06-19T08:20:13.610Z,30.84
2018-06-19T08:22:43.333Z,31.20
2018-06-19T08:25:12.995Z,31.15
2018-06-19T08:27:42.737Z,31.03
2018-06-19T08:30:12.405Z,31.27
2018-06-19T08:35:17.566Z,31.07
2018-06-19T08:37:47.265Z,31.37
2018-06-19T08:40:17.036Z,31.34
2018-06-19T08:42:46.722Z,31.50
2018-06-19T08:45:16.443Z,31.49
2018-06-19T08:47:46.136Z,31.98
2018-06-19T08:50:15.721Z,31.85
2018-06-19T08:52:45.297Z,31.68
2018-06-19T08:57:49.794Z,30.87
2018-06-19T09:00:19.395Z,30.72
2018-06-19T09:02:49.069Z,30.68
2018-06-19T09:05:18.703Z,30.83
2018-06-19T09:07:51.548Z,31.02
2018-06-19T09:10:21.356Z,31.06
2018-06-19T09:12:51.083Z,30.97
2018-06-19T09:15:20.412Z,30.79
2018-06-19T09:17:49.996Z,31.06
2018-06-19T09:20:19.404Z,31.13
2018-06-19T09:22:48.913Z,31.48
2018-06-19T09:25:18.609Z,31.39
2018-06-19T09:27:48.343Z,31.26
2018-06-19T09:30:18.453Z,30.73
2018-06-19T09:32:48.232Z,30.83
2018-06-19T09:35:17.858Z,31.31
2018-06-19T09:37:47.481Z,31.91
2018-06-19T09:40:17.048Z,31.85
2018-06-19T09:42:46.631Z,32.22
2018-06-19T09:45:16.307Z,32.24
2018-06-19T09:47:46.186Z,31.81
2018-06-19T09:50:15.885Z,31.34
2018-06-19T09:52:45.585Z,31.35
2018-06-19T09:55:15.351Z,31.71
2018-06-19T09:57:45.021Z,32.28
2018-06-19T10:00:23.916Z,32.34
2018-06-19T10:02:53.600Z,32.01
2018-06-19T10:05:23.233Z,31.81
2018-06-19T10:07:52.974Z,31.58
2018-06-19T10:10:22.691Z,31.43
2018-06-19T10:12:52.482Z,31.26
2018-06-19T10:15:22.159Z,30.77
2018-06-19T10:17:51.566Z,31.04
2018-06-19T10:20:21.221Z,31.26
2018-06-19T10:22:51.428Z,31.56
2018-06-19T10:25:21.079Z,31.42
2018-06-19T10:27:50.765Z,31.37
2018-06-19T10:30:20.523Z,31.55
2018-06-19T10:32:51.067Z,31.92
2018-06-19T10:35:20.833Z,32.14
2018-06-19T10:37:50.638Z,32.17
2018-06-19T10:42:56.165Z,32.48
2018-06-19T10:45:25.891Z,32.79
2018-06-19T10:47:55.461Z,33.08
2018-06-19T10:50:25.167Z,33.04
2018-06-19T10:52:55.046Z,33.06
2018-06-19T10:55:24.877Z,32.56
2018-06-19T10:57:54.485Z,32.56
2018-06-19T11:00:24.245Z,32.27
2018-06-19T11:02:53.945Z,31.84
2018-06-19T11:05:23.683Z,31.50
2018-06-19T11:07:53.399Z,31.82
2018-06-19T11:10:28.792Z,32.32
2018-06-19T11:12:58.108Z,32.14
2018-06-19T11:15:27.738Z,32.41
2018-06-19T11:17:57.333Z,32.89
2018-06-19T11:20:27.076Z,33.22
2018-06-19T11:22:56.735Z,33.22
2018-06-19T11:28:01.323Z,33.26
2018-06-19T11:30:31.149Z,32.89
2018-06-19T11:33:00.912Z,33.23
2018-06-19T11:35:30.575Z,33.18
2018-06-19T11:38:00.171Z,33.10
2018-06-19T11:40:29.836Z,32.45
2018-06-19T11:42:59.490Z,32.54
2018-06-19T11:45:29.181Z,33.15
2018-06-19T11:47:58.901Z,33.12
2018-06-19T11:50:28.618Z,32.96
2018-06-19T11:52:58.276Z,32.93
2018-06-19T11:55:28.040Z,33.48
2018-06-19T11:57:57.679Z,34.03
2018-06-19T12:00:27.321Z,34.24
2018-06-19T12:02:56.636Z,34.07
2018-06-19T12:05:26.117Z,34.00
2018-06-19T12:07:55.463Z,33.63
2018-06-19T12:10:24.997Z,33.01
2018-06-19T12:12:54.701Z,32.17
2018-06-19T12:15:24.320Z,32.46
2018-06-19T12:17:54.184Z,32.07
2018-06-19T12:20:23.902Z,32.43
2018-06-19T12:22:53.684Z,33.24
2018-06-19T12:25:23.590Z,33.77
2018-06-19T12:27:53.429Z,33.40
2018-06-19T12:30:22.986Z,33.81
2018-06-19T12:32:52.550Z,34.29
2018-06-19T12:35:22.225Z,34.40
2018-06-19T12:37:51.871Z,34.43
2018-06-19T12:40:21.734Z,34.13
2018-06-19T12:45:27.697Z,33.77
2018-06-19T12:47:57.392Z,33.52
2018-06-19T12:53:25.506Z,34.46
2018-06-19T12:56:06.254Z,34.96
2018-06-19T12:58:35.860Z,34.88
2018-06-19T13:01:05.616Z,34.53
2018-06-19T13:03:47.540Z,34.63
2018-06-19T13:06:31.592Z,34.18
2018-06-19T13:09:01.329Z,33.80
2018-06-19T13:11:32.543Z,33.73
2018-06-19T13:14:44.696Z,33.58
2018-06-19T13:17:25.684Z,33.07
2018-06-19T13:20:06.648Z,33.57
2018-06-19T13:22:36.393Z,34.55
2018-06-19T13:27:41.951Z,34.73
2018-06-19T13:30:22.676Z,34.30
2018-06-19T13:32:52.374Z,34.57
2018-06-19T13:35:22.119Z,34.73
2018-06-19T13:37:51.796Z,34.29
2018-06-19T13:41:26.367Z,33.69
2018-06-19T13:44:08.747Z,32.78
2018-06-19T13:46:38.365Z,32.85
2018-06-19T13:49:08.069Z,33.09
2018-06-19T13:51:38.082Z,33.06
2018-06-19T13:54:07.734Z,33.11
2018-06-19T13:57:13.458Z,33.98
2018-06-19T13:59:43.080Z,34.10
2018-06-19T14:02:12.769Z,34.22
2018-06-19T14:04:42.370Z,34.62
2018-06-19T14:07:12.008Z,35.15
2018-06-19T14:12:58.300Z,34.41
2018-06-19T14:15:29.104Z,33.74
2018-06-19T14:17:58.682Z,33.38
2018-06-19T14:20:28.409Z,32.50
2018-06-19T14:22:58.650Z,32.03
2018-06-19T14:25:28.506Z,32.47
2018-06-19T14:27:58.239Z,32.43
2018-06-19T14:30:28.345Z,32.33
2018-06-19T14:32:58.113Z,32.88
2018-06-19T14:35:27.849Z,33.05
2018-06-19T14:37:57.631Z,33.70
2018-06-19T14:40:27.302Z,33.78
2018-06-19T14:42:57.985Z,34.13
2018-06-19T14:45:27.356Z,33.67
2018-06-19T14:47:56.857Z,33.66
2018-06-19T14:50:26.804Z,33.53
2018-06-19T14:52:56.615Z,33.36
2018-06-19T14:55:26.567Z,33.70
2018-06-19T14:57:56.571Z,33.85
2018-06-19T15:00:26.452Z,33.84
2018-06-19T15:02:56.471Z,34.24
2018-06-19T15:05:26.137Z,34.16
2018-06-19T15:07:55.905Z,34.39
2018-06-19T15:10:25.932Z,34.89
2018-06-19T15:12:55.234Z,35.41
2018-06-19T15:15:24.924Z,35.19
2018-06-19T15:17:54.596Z,35.27
2018-06-19T15:20:24.196Z,35.55
2018-06-19T15:22:54.177Z,35.65
2018-06-19T15:25:23.944Z,35.70
2018-06-19T15:27:53.647Z,35.66
2018-06-19T15:30:23.267Z,35.64
2018-06-19T15:32:53.050Z,35.87
2018-06-19T15:35:22.682Z,36.02
2018-06-19T15:37:52.425Z,36.09
2018-06-19T15:40:22.246Z,35.89
2018-06-19T15:42:52.119Z,35.96
2018-06-19T15:45:21.704Z,35.95
2018-06-19T15:47:51.608Z,35.92
2018-06-19T15:50:21.163Z,36.01
2018-06-19T15:52:51.187Z,36.00
2018-06-19T15:55:21.018Z,35.87
2018-06-19T15:57:50.859Z,35.38
2018-06-19T16:00:20.537Z,35.17
2018-06-19T16:02:50.141Z,35.14
2018-06-19T16:05:19.760Z,34.93
2018-06-19T16:07:54.736Z,34.31
2018-06-19T16:10:24.420Z,34.21
2018-06-19T16:12:54.733Z,34.70
2018-06-19T16:15:24.354Z,34.58
2018-06-19T16:17:53.998Z,34.60
2018-06-19T16:20:23.856Z,33.83
2018-06-19T16:22:53.608Z,34.36
2018-06-19T16:25:23.446Z,34.45
2018-06-19T16:27:53.236Z,34.65
2018-06-19T16:30:23.076Z,34.44
2018-06-19T16:32:52.709Z,34.56
2018-06-19T16:35:22.591Z,33.97
2018-06-19T16:37:52.356Z,33.60
2018-06-19T16:40:22.102Z,33.62
2018-06-19T16:42:51.769Z,33.63
2018-06-19T16:45:21.521Z,33.30
2018-06-19T16:47:51.223Z,33.70
2018-06-19T16:50:20.819Z,33.79
2018-06-19T16:52:51.223Z,34.06
2018-06-19T16:55:21.086Z,34.07
2018-06-19T16:57:50.979Z,33.95
2018-06-19T17:00:20.749Z,33.89
2018-06-19T17:02:50.391Z,34.06
2018-06-19T17:05:19.978Z,34.23
2018-06-19T17:07:49.947Z,34.34
2018-06-19T17:10:21.469Z,34.62
2018-06-19T17:12:51.560Z,34.59
2018-06-19T17:15:21.410Z,34.67
2018-06-19T17:17:51.075Z,34.33
2018-06-19T17:22:57.378Z,34.44
2018-06-19T17:25:26.973Z,33.99
2018-06-19T17:27:56.810Z,33.96
2018-06-19T17:30:26.634Z,33.58
2018-06-19T17:32:56.463Z,33.22
2018-06-19T17:35:26.163Z,32.95
2018-06-19T17:37:55.829Z,32.63
2018-06-19T17:40:27.707Z,32.48
2018-06-19T17:42:57.771Z,32.23
2018-06-19T17:45:27.539Z,32.04
2018-06-19T17:47:57.628Z,31.91
2018-06-19T17:50:28.223Z,31.95
2018-06-19T17:52:58.424Z,32.03
2018-06-19T17:55:28.005Z,31.56
2018-06-19T17:57:57.609Z,31.83
2018-06-19T18:00:27.173Z,31.52
2018-06-19T18:02:57.326Z,31.21
2018-06-19T18:05:27.032Z,31.27
2018-06-19T18:07:56.616Z,31.17
2018-06-19T18:10:39.123Z,30.90
2018-06-19T18:13:25.111Z,30.83
2018-06-19T18:16:10.628Z,30.74
2018-06-19T18:18:52.717Z,31.04
2018-06-19T18:24:19.531Z,30.52
2018-06-19T18:27:06.115Z,30.14
2018-06-19T18:29:51.346Z,29.86
2018-06-19T18:32:37.610Z,29.67
2018-06-19T18:38:19.323Z,29.11
2018-06-19T18:43:55.184Z,28.79
2018-06-19T18:46:41.712Z,28.69
2018-06-19T18:49:25.344Z,28.71
2018-06-19T18:52:09.842Z,28.63
2018-06-19T18:54:54.767Z,28.56
2018-06-19T18:57:33.308Z,28.24
2018-06-19T19:00:21.407Z,28.19
2018-06-19T19:03:08.337Z,28.34
2018-06-19T19:05:52.864Z,28.06
2018-06-19T19:08:34.517Z,27.90
2018-06-19T19:11:19.785Z,27.87
2018-06-19T19:16:53.352Z,27.58
2018-06-19T19:19:45.394Z,27.44
2018-06-19T19:22:30.168Z,27.46
2018-06-19T19:25:08.897Z,27.31
2018-06-19T19:27:56.223Z,27.09
2018-06-19T19:30:37.240Z,27.49
2018-06-19T19:36:04.305Z,27.19
2018-06-19T19:44:28.089Z,26.89
2018-06-19T19:49:14.395Z,26.76
2018-06-19T19:51:54.735Z,26.38
2018-06-19T19:54:36.667Z,26.59
2018-06-19T20:02:56.520Z,26.73
2018-06-19T20:05:34.788Z,26.32
2018-06-19T20:08:15.802Z,26.28
2018-06-19T20:11:11.906Z,26.14
2018-06-19T20:13:52.078Z,26.18
2018-06-19T20:16:26.248Z,26.13
2018-06-19T20:19:09.686Z,25.91
2018-06-19T20:21:54.049Z,25.90
2018-06-19T20:24:36.503Z,25.78
2018-06-19T20:27:18.279Z,25.67
2018-06-19T20:30:08.441Z,25.65
2018-06-19T20:32:51.050Z,25.42
2018-06-19T20:35:40.262Z,25.42
2018-06-19T20:38:20.345Z,25.49
2018-06-19T20:43:51.610Z,25.44
2018-06-19T20:46:33.441Z,25.32
2018-06-19T20:54:48.747Z,25.38
2018-06-19T20:57:35.779Z,25.29
2018-06-19T21:00:19.516Z,25.16
2018-06-19T21:05:43.007Z,25.14
2018-06-19T21:14:01.782Z,25.07
2018-06-19T21:16:50.828Z,25.04
2018-06-19T21:19:26.073Z,25.02
2018-06-19T21:30:32.296Z,24.80
2018-06-19T21:33:14.365Z,24.67
2018-06-19T21:36:04.415Z,24.59
2018-06-19T21:38:43.604Z,24.45
2018-06-19T21:41:20.422Z,24.21
2018-06-19T21:52:09.754Z,24.12
2018-06-19T21:54:50.241Z,24.29
2018-06-19T21:57:30.883Z,24.25
2018-06-19T22:00:18.744Z,24.41
2018-06-19T22:03:09.058Z,24.40
2018-06-19T22:05:58.973Z,24.49
2018-06-19T22:08:53.087Z,24.29
2018-06-19T22:14:18.488Z,24.17
2018-06-19T22:17:09.426Z,24.23
2018-06-19T22:22:51.115Z,24.05
2018-06-19T22:28:18.155Z,24.09
2018-06-19T22:36:34.170Z,24.09
2018-06-19T22:39:26.405Z,24.00
2018-06-19T22:42:17.463Z,23.85
2018-06-19T22:45:05.789Z,24.07
2018-06-19T22:47:45.081Z,23.85
2018-06-19T22:50:26.734Z,23.80
2018-06-19T22:53:07.087Z,23.87
2018-06-19T22:58:41.832Z,23.56
2018-06-19T23:01:25.392Z,23.48
2018-06-19T23:03:59.816Z,23.11
2018-06-19T23:06:39.124Z,23.15
2018-06-19T23:09:24.946Z,23.28
2018-06-19T23:17:35.463Z,23.03
2018-06-19T23:20:12.845Z,23.07
2018-06-19T23:25:58.621Z,22.91
2018-06-19T23:28:36.340Z,22.88
2018-06-19T23:31:14.831Z,22.90
2018-06-19T23:33:47.668Z,22.77
2018-06-19T23:36:19.987Z,22.59
2018-06-19T23:39:04.877Z,22.89
2018-06-19T23:41:40.751Z,22.58
2018-06-19T23:44:13.081Z,22.50
2018-06-19T23:46:45.315Z,22.72
2018-06-19T23:49:17.452Z,22.56
2018-06-19T23:51:53.361Z,22.45
2018-06-19T23:54:26.637Z,22.55
2018-06-19T23:57:00.378Z,22.42
2018-06-19T23:59:35.653Z,22.56
